createdAt,value
2022-11-22T00:00:41.341Z,11.40
2022-11-22T00:03:08.912Z,13.00
2022-11-22T00:05:35.854Z,10.10
2022-11-22T00:08:03.689Z,10.93
2022-11-22T00:10:30.652Z,13.60
2022-11-22T00:12:57.499Z,13.00
2022-11-22T00:15:24.523Z,12.90
2022-11-22T00:17:51.617Z,13.00
2022-11-22T00:20:18.603Z,12.20
2022-11-22T00:22:45.459Z,13.20
2022-11-22T00:25:13.307Z,12.93
2022-11-22T00:27:40.540Z,12.00
2022-11-22T00:30:08.506Z,13.10
2022-11-22T00:32:35.556Z,14.23
2022-11-22T00:35:02.689Z,11.17
2022-11-22T00:37:29.545Z,13.07
2022-11-22T00:39:56.501Z,13.77
2022-11-22T00:42:23.329Z,12.93
2022-11-22T00:44:50.205Z,13.40
2022-11-22T00:47:17.077Z,14.93
2022-11-22T00:49:43.941Z,13.00
2022-11-22T00:52:10.836Z,13.97
2022-11-22T00:54:37.765Z,13.83
2022-11-22T00:57:04.605Z,13.20
2022-11-22T00:59:31.623Z,14.30
2022-11-22T01:01:58.705Z,11.40
2022-11-22T01:04:25.647Z,8.40
2022-11-22T01:06:52.473Z,13.43
2022-11-22T01:09:21.966Z,11.60
2022-11-22T01:11:49.528Z,12.70
2022-11-22T01:14:17.197Z,12.70
2022-11-22T01:16:44.661Z,14.60
2022-11-22T01:19:11.733Z,12.27
2022-11-22T01:21:39.139Z,12.93
2022-11-22T01:24:06.501Z,14.73
2022-11-22T01:26:34.326Z,13.80
2022-11-22T01:29:01.338Z,13.80
2022-11-22T01:31:29.925Z,14.00
2022-11-22T01:33:58.803Z,12.37
2022-11-22T01:36:27.221Z,15.00
2022-11-22T01:38:54.343Z,12.73
2022-11-22T01:41:21.323Z,14.87
2022-11-22T01:43:48.183Z,14.20
2022-11-22T01:46:33.553Z,14.47
2022-11-22T01:49:10.804Z,13.87
2022-11-22T01:51:41.086Z,13.43
2022-11-22T01:54:16.767Z,13.87
2022-11-22T01:56:47.696Z,16.90
2022-11-22T01:59:19.888Z,15.17
2022-11-22T02:01:46.865Z,13.73
2022-11-22T02:04:16.482Z,13.17
2022-11-22T02:07:11.555Z,12.30
2022-11-22T02:09:40.369Z,12.83
2022-11-22T02:12:08.781Z,11.20
2022-11-22T02:14:36.866Z,13.40
2022-11-22T02:17:03.739Z,13.37
2022-11-22T02:19:36.728Z,11.80
2022-11-22T02:22:33.222Z,11.90
2022-11-22T02:25:19.734Z,12.80
2022-11-22T02:27:46.617Z,14.67
2022-11-22T02:30:14.408Z,13.47
2022-11-22T02:32:41.578Z,13.50
2022-11-22T02:35:28.888Z,13.57
2022-11-22T02:38:04.547Z,15.70
2022-11-22T02:40:52.215Z,14.63
2022-11-22T02:43:28.029Z,14.63
2022-11-22T02:45:54.894Z,14.60
2022-11-22T02:48:21.862Z,14.70
2022-11-22T02:50:48.708Z,14.83
2022-11-22T02:53:15.562Z,15.03
2022-11-22T02:55:42.494Z,13.10
2022-11-22T02:58:09.404Z,14.67
2022-11-22T03:00:38.220Z,15.40
2022-11-22T03:03:05.748Z,15.30
2022-11-22T03:05:33.015Z,11.93
2022-11-22T03:08:00.195Z,15.73
2022-11-22T03:10:27.258Z,14.80
2022-11-22T03:12:54.105Z,15.23
2022-11-22T03:15:20.988Z,14.00
2022-11-22T03:17:47.840Z,14.57
2022-11-22T03:20:14.886Z,15.40
2022-11-22T03:22:41.875Z,14.57
2022-11-22T03:25:08.983Z,14.07
2022-11-22T03:27:35.862Z,11.47
2022-11-22T03:30:03.146Z,14.30
2022-11-22T03:32:30.009Z,13.73
2022-11-22T03:34:56.980Z,15.90
2022-11-22T03:37:23.930Z,13.37
2022-11-22T03:39:50.882Z,15.90
2022-11-22T03:42:21.635Z,15.37
2022-11-22T03:44:49.317Z,14.47
2022-11-22T03:47:16.310Z,15.47
2022-11-22T03:49:43.273Z,14.97
2022-11-22T03:52:10.451Z,12.47
2022-11-22T03:54:37.409Z,15.83
2022-11-22T03:57:05.424Z,14.93
2022-11-22T03:59:32.657Z,15.97
2022-11-22T04:01:59.811Z,10.37
2022-11-22T04:04:26.757Z,12.50
2022-11-22T04:06:53.614Z,15.73
2022-11-22T04:09:20.547Z,13.33
2022-11-22T04:11:47.471Z,17.00
2022-11-22T04:14:32.818Z,16.90
2022-11-22T04:16:59.645Z,14.73
2022-11-22T04:19:26.570Z,15.87
2022-11-22T04:21:53.572Z,16.53
2022-11-22T04:24:38.980Z,14.03
2022-11-22T04:27:05.912Z,12.37
2022-11-22T04:29:33.041Z,17.17
2022-11-22T04:32:18.685Z,18.17
2022-11-22T04:34:45.576Z,17.40
2022-11-22T04:37:12.605Z,17.30
2022-11-22T04:39:39.440Z,13.77
2022-11-22T04:42:24.936Z,16.93
2022-11-22T04:44:51.864Z,13.80
2022-11-22T04:47:38.881Z,17.50
2022-11-22T04:50:28.628Z,16.57
2022-11-22T04:52:57.503Z,15.43
2022-11-22T04:55:24.738Z,18.70
2022-11-22T04:57:57.574Z,16.87
2022-11-22T05:00:29.177Z,19.10
2022-11-22T05:02:58.092Z,15.47
2022-11-22T05:05:26.240Z,19.07
2022-11-22T05:07:53.618Z,18.87
2022-11-22T05:10:26.156Z,21.10
2022-11-22T05:12:54.710Z,17.73
2022-11-22T05:15:21.637Z,18.35
2022-11-22T05:17:48.874Z,17.70
2022-11-22T05:20:15.809Z,18.90
2022-11-22T05:23:00.896Z,18.57
2022-11-22T05:25:27.923Z,15.30
2022-11-22T05:27:55.191Z,18.00
2022-11-22T05:30:22.227Z,17.13
2022-11-22T05:32:49.114Z,16.57
2022-11-22T05:35:16.098Z,18.77
2022-11-22T05:37:42.951Z,20.33
2022-11-22T05:40:11.096Z,20.47
2022-11-22T05:42:37.971Z,21.53
2022-11-22T05:45:05.990Z,18.90
2022-11-22T05:47:36.607Z,20.07
2022-11-22T05:50:04.618Z,20.17
2022-11-22T05:52:31.813Z,18.30
2022-11-22T05:54:58.653Z,17.73
2022-11-22T05:57:25.976Z,19.15
2022-11-22T05:59:52.990Z,19.13
2022-11-22T06:02:20.419Z,18.13
2022-11-22T06:04:47.320Z,15.77
2022-11-22T06:07:14.405Z,13.60
2022-11-22T06:09:41.516Z,21.67
2022-11-22T06:12:08.949Z,21.63
2022-11-22T06:14:41.547Z,18.90
2022-11-22T06:17:10.071Z,18.97
2022-11-22T06:19:37.097Z,18.67
2022-11-22T06:22:04.115Z,18.77
2022-11-22T06:24:31.012Z,18.93
2022-11-22T06:26:57.887Z,18.57
2022-11-22T06:29:24.797Z,19.17
2022-11-22T06:31:51.693Z,17.10
2022-11-22T06:34:18.657Z,20.70
2022-11-22T06:36:46.464Z,17.43
2022-11-22T06:39:13.412Z,12.80
2022-11-22T06:41:40.304Z,14.67
2022-11-22T06:44:09.494Z,18.80
2022-11-22T06:46:37.511Z,14.77
2022-11-22T06:51:32.572Z,16.63
2022-11-22T06:53:59.510Z,18.50
2022-11-22T06:56:28.919Z,20.90
2022-11-22T06:58:56.043Z,16.43
2022-11-22T07:01:27.030Z,18.83
2022-11-22T07:03:58.962Z,20.33
2022-11-22T07:06:29.477Z,18.57
2022-11-22T07:08:56.574Z,18.37
2022-11-22T07:11:28.068Z,18.77
2022-11-22T07:13:59.213Z,11.30
2022-11-22T07:16:30.783Z,20.07
2022-11-22T07:19:02.899Z,18.30
2022-11-22T07:21:29.909Z,16.73
2022-11-22T07:23:56.978Z,17.17
2022-11-22T07:26:25.912Z,18.00
2022-11-22T07:28:53.070Z,17.50
2022-11-22T07:31:20.617Z,19.10
2022-11-22T07:33:47.686Z,17.47
2022-11-22T07:36:18.379Z,19.17
2022-11-22T07:38:46.124Z,17.13
2022-11-22T07:41:13.661Z,16.70
2022-11-22T07:43:41.293Z,17.40
2022-11-22T07:46:31.338Z,16.30
2022-11-22T07:48:59.949Z,16.53
2022-11-22T07:51:27.476Z,15.57
2022-11-22T07:53:56.130Z,14.57
2022-11-22T07:56:23.358Z,16.40
2022-11-22T07:58:50.256Z,19.37
2022-11-22T08:01:19.129Z,17.40
2022-11-22T08:03:46.476Z,18.57
2022-11-22T08:06:14.124Z,19.17
2022-11-22T08:08:41.323Z,15.57
2022-11-22T08:11:08.351Z,18.47
2022-11-22T08:13:35.967Z,18.93
2022-11-22T08:16:12.995Z,21.70
2022-11-22T08:18:41.421Z,13.20
2022-11-22T08:21:11.927Z,19.00
2022-11-22T08:23:39.993Z,14.33
2022-11-22T08:26:09.432Z,18.90
2022-11-22T08:28:36.390Z,19.60
2022-11-22T08:31:16.502Z,16.53
2022-11-22T08:33:43.444Z,14.70
2022-11-22T08:36:10.788Z,21.57
2022-11-22T08:38:38.038Z,20.20
2022-11-22T08:41:06.730Z,13.00
2022-11-22T08:43:33.692Z,16.77
2022-11-22T08:46:02.045Z,18.93
2022-11-22T08:48:31.633Z,16.00
2022-11-22T08:51:05.916Z,8.87
2022-11-22T08:53:35.148Z,12.03
2022-11-22T08:56:04.600Z,22.40
2022-11-22T08:58:33.759Z,21.13
2022-11-22T09:01:16.595Z,18.97
2022-11-22T09:03:44.763Z,17.73
2022-11-22T09:09:35.975Z,18.20
2022-11-22T09:11:48.962Z,18.07
2022-11-22T09:14:15.920Z,17.33
2022-11-22T09:16:42.852Z,17.50
2022-11-22T09:19:09.928Z,20.63
2022-11-22T09:21:36.799Z,19.17
2022-11-22T09:24:03.955Z,18.33
2022-11-22T09:26:31.037Z,20.60
2022-11-22T09:28:57.998Z,20.67
2022-11-22T09:31:25.337Z,18.60
2022-11-22T09:33:52.480Z,20.30
2022-11-22T09:36:22.880Z,23.10
2022-11-22T09:38:51.334Z,22.23
2022-11-22T09:41:29.073Z,19.60
2022-11-22T09:44:17.781Z,20.13
2022-11-22T09:46:56.530Z,16.97
2022-11-22T09:49:30.702Z,19.90
2022-11-22T09:52:22.420Z,21.33
2022-11-22T09:55:04.534Z,19.20
2022-11-22T09:57:46.464Z,19.83
2022-11-22T10:00:25.947Z,16.97
2022-11-22T10:03:29.690Z,20.23
2022-11-22T10:06:01.570Z,16.10
2022-11-22T10:08:46.071Z,17.40
2022-11-22T10:11:40.477Z,20.30
2022-11-22T10:14:51.489Z,18.97
2022-11-22T10:17:46.901Z,20.13
2022-11-22T10:20:21.110Z,18.77
2022-11-22T10:22:48.986Z,20.47
2022-11-22T10:25:30.837Z,20.40
2022-11-22T10:28:11.947Z,18.57
2022-11-22T10:31:10.603Z,20.47
2022-11-22T10:34:03.130Z,21.80
2022-11-22T10:37:07.782Z,19.40
2022-11-22T10:40:04.294Z,17.23
2022-11-22T10:42:49.325Z,18.27
2022-11-22T10:45:31.485Z,19.77
2022-11-22T10:48:32.510Z,19.20
2022-11-22T10:51:39.686Z,17.30
2022-11-22T10:54:23.350Z,16.20
2022-11-22T10:57:20.534Z,20.90
2022-11-22T11:00:17.565Z,19.97
2022-11-22T11:03:21.222Z,20.13
2022-11-22T11:09:47.670Z,20.57
2022-11-22T11:11:44.119Z,20.17
2022-11-22T11:14:30.086Z,20.07
2022-11-22T11:16:58.154Z,21.40
2022-11-22T11:19:28.404Z,20.57
2022-11-22T11:22:08.494Z,16.00
2022-11-22T11:24:40.051Z,20.27
2022-11-22T11:27:10.772Z,19.67
2022-11-22T11:29:47.641Z,18.50
2022-11-22T11:32:20.303Z,20.13
2022-11-22T11:35:00.131Z,21.80
2022-11-22T11:37:36.833Z,16.57
2022-11-22T11:40:06.292Z,19.20
2022-11-22T11:42:35.322Z,18.77
2022-11-22T11:45:28.937Z,19.40
2022-11-22T11:47:56.073Z,18.53
2022-11-22T11:50:29.925Z,18.60
2022-11-22T11:53:05.598Z,19.70
2022-11-22T11:55:35.954Z,18.00
2022-11-22T11:58:21.142Z,16.50
2022-11-22T12:00:48.101Z,19.10
2022-11-22T12:03:19.518Z,18.97
2022-11-22T12:05:46.586Z,19.23
2022-11-22T12:08:31.608Z,16.93
2022-11-22T12:11:18.442Z,19.00
2022-11-22T12:14:18.890Z,20.00
2022-11-22T12:16:47.663Z,19.07
2022-11-22T12:19:29.557Z,19.63
2022-11-22T12:22:48.385Z,17.97
2022-11-22T12:28:21.931Z,18.20
2022-11-22T12:31:14.860Z,19.50
2022-11-22T12:33:45.185Z,19.80
2022-11-22T12:36:41.877Z,18.20
2022-11-22T12:39:16.132Z,17.83
2022-11-22T12:41:46.738Z,17.10
2022-11-22T12:44:18.899Z,20.90
2022-11-22T12:47:01.358Z,19.03
2022-11-22T12:48:23.818Z,19.00
2022-11-22T12:49:56.154Z,19.97
2022-11-22T12:52:41.471Z,17.43
2022-11-22T12:55:21.102Z,18.73
2022-11-22T12:58:02.036Z,20.00
2022-11-22T13:00:36.081Z,18.43
2022-11-22T13:03:15.261Z,20.20
2022-11-22T13:05:57.294Z,20.57
2022-11-22T13:08:53.255Z,20.23
2022-11-22T13:12:00.476Z,18.67
2022-11-22T13:14:54.042Z,18.23
2022-11-22T13:17:23.863Z,21.70
2022-11-22T13:20:16.268Z,16.77
2022-11-22T13:23:31.128Z,19.80
2022-11-22T13:26:16.033Z,21.50
2022-11-22T13:28:44.753Z,20.57
2022-11-22T13:31:12.734Z,19.67
2022-11-22T13:34:01.558Z,20.53
2022-11-22T13:36:31.206Z,20.03
2022-11-22T13:39:20.931Z,21.47
2022-11-22T13:42:04.459Z,20.73
2022-11-22T13:44:31.429Z,19.13
2022-11-22T13:47:00.560Z,21.00
2022-11-22T13:49:48.316Z,20.67
2022-11-22T13:52:15.814Z,18.97
2022-11-22T13:54:56.396Z,21.03
2022-11-22T13:57:38.546Z,19.37
2022-11-22T14:00:14.710Z,19.70
2022-11-22T14:03:13.950Z,17.40
2022-11-22T14:05:46.061Z,16.50
2022-11-22T14:08:41.434Z,20.90
2022-11-22T14:11:40.846Z,17.30
2022-11-22T14:14:35.485Z,18.83
2022-11-22T14:17:43.822Z,18.47
2022-11-22T14:20:41.744Z,19.00
2022-11-22T14:24:05.136Z,19.70
2022-11-22T14:26:57.157Z,18.57
2022-11-22T14:29:54.937Z,20.63
2022-11-22T14:32:26.490Z,18.30
2022-11-22T14:35:05.694Z,18.60
2022-11-22T14:37:32.527Z,19.80
2022-11-22T14:40:08.506Z,19.03
2022-11-22T14:42:40.019Z,21.03
2022-11-22T14:45:10.134Z,19.70
2022-11-22T14:47:45.718Z,19.80
2022-11-22T14:50:36.582Z,20.57
2022-11-22T14:53:23.309Z,21.80
2022-11-22T14:55:54.612Z,19.07
2022-11-22T14:58:29.454Z,20.10
2022-11-22T15:01:21.430Z,20.30
2022-11-22T15:09:22.730Z,19.80
2022-11-22T15:09:23.397Z,19.93
2022-11-22T15:11:05.125Z,18.87
2022-11-22T15:13:46.927Z,21.10
2022-11-22T15:57:35.672Z,20.93
2022-11-22T16:00:09.142Z,22.00
2022-11-22T16:02:40.509Z,20.53
2022-11-22T16:06:10.131Z,21.30
2022-11-22T16:07:58.936Z,20.37
2022-11-22T16:10:43.068Z,21.27
2022-11-22T16:13:29.016Z,19.93
2022-11-22T16:16:15.331Z,19.40
2022-11-22T16:18:44.437Z,22.00
2022-11-22T16:21:11.798Z,21.60
2022-11-22T16:23:45.255Z,19.87
2022-11-22T16:26:25.214Z,22.70
2022-11-22T16:28:55.115Z,23.23
2022-11-22T16:31:28.591Z,18.60
2022-11-22T16:33:57.178Z,22.40
2022-11-22T16:36:29.146Z,21.73
2022-11-22T16:38:56.096Z,22.50
2022-11-22T16:41:29.190Z,20.33
2022-11-22T16:44:01.947Z,23.43
2022-11-22T16:46:29.242Z,22.90
2022-11-22T16:48:57.105Z,24.57
2022-11-22T16:51:54.570Z,23.00
2022-11-22T16:54:24.048Z,22.53
2022-11-22T16:56:54.538Z,22.00
2022-11-22T16:59:25.050Z,22.57
2022-11-22T17:01:55.458Z,21.90
2022-11-22T17:04:26.538Z,21.20
2022-11-22T17:06:54.438Z,23.57
2022-11-22T17:09:22.455Z,20.47
2022-11-22T17:11:53.439Z,23.00
2022-11-22T17:14:23.635Z,21.80
2022-11-22T17:16:50.754Z,21.37
2022-11-22T17:19:45.395Z,23.60
2022-11-22T17:22:07.384Z,23.67
2022-11-22T17:24:35.490Z,24.10
2022-11-22T17:27:03.335Z,22.93
2022-11-22T17:30:01.114Z,23.57
2022-11-22T17:32:18.854Z,22.10
2022-11-22T17:34:45.887Z,24.60
2022-11-22T17:37:14.084Z,24.52
2022-11-22T17:39:41.521Z,31.20
2022-11-22T17:42:09.336Z,24.80
2022-11-22T17:44:36.325Z,21.40
2022-11-22T17:47:03.708Z,23.20
2022-11-22T17:49:31.314Z,23.90
2022-11-22T17:51:58.716Z,24.13
2022-11-22T17:54:25.833Z,21.87
2022-11-22T17:56:52.819Z,22.20
2022-11-22T17:59:20.218Z,22.30
2022-11-22T18:01:48.060Z,22.53
2022-11-22T18:04:17.491Z,24.80
2022-11-22T18:06:44.577Z,21.40
2022-11-22T18:09:11.851Z,24.60
2022-11-22T18:11:39.135Z,23.60
2022-11-22T18:14:06.423Z,24.87
2022-11-22T18:16:33.921Z,23.80
2022-11-22T18:19:01.100Z,23.20
2022-11-22T18:21:30.916Z,24.77
2022-11-22T18:23:59.650Z,22.47
2022-11-22T18:26:43.124Z,22.23
2022-11-22T18:32:01.614Z,23.17
2022-11-22T18:34:30.176Z,24.23
2022-11-22T18:37:02.978Z,24.43
2022-11-22T18:39:38.573Z,21.60
2022-11-22T18:42:15.158Z,22.50
2022-11-22T18:44:42.522Z,25.73
2022-11-22T18:47:09.964Z,24.10
2022-11-22T18:49:37.476Z,24.33
2022-11-22T18:52:05.239Z,21.37
2022-11-22T18:54:33.205Z,24.23
2022-11-22T18:57:00.807Z,22.63
2022-11-22T18:59:28.119Z,20.97
2022-11-22T19:01:55.600Z,22.13
2022-11-22T19:04:22.757Z,25.50
2022-11-22T19:06:50.300Z,21.17
2022-11-22T19:09:17.755Z,24.00
2022-11-22T19:11:47.919Z,23.40
2022-11-22T19:14:15.231Z,21.30
2022-11-22T19:16:43.208Z,22.87
2022-11-22T19:19:12.263Z,23.07
2022-11-22T19:21:39.671Z,23.17
2022-11-22T19:24:06.845Z,22.07
2022-11-22T19:26:34.225Z,23.40
2022-11-22T19:29:02.728Z,23.20
2022-11-22T19:31:31.730Z,20.60
2022-11-22T19:33:59.551Z,23.80
2022-11-22T19:36:33.341Z,22.30
2022-11-22T19:39:02.659Z,21.27
2022-11-22T19:41:30.878Z,20.40
2022-11-22T19:43:58.399Z,23.87
2022-11-22T19:46:26.452Z,22.20
2022-11-22T19:48:56.636Z,22.80
2022-11-22T19:51:25.276Z,22.57
2022-11-22T19:54:02.294Z,23.13
2022-11-22T19:56:34.928Z,21.27
2022-11-22T19:59:05.499Z,21.90
2022-11-22T20:01:37.975Z,20.57
2022-11-22T20:04:06.594Z,23.30
2022-11-22T20:06:38.590Z,22.90
2022-11-22T20:09:12.958Z,21.20
2022-11-22T20:11:43.709Z,22.30
2022-11-22T20:14:10.859Z,20.53
2022-11-22T20:16:42.861Z,23.53
2022-11-22T20:19:12.763Z,22.03
2022-11-22T20:21:43.271Z,20.60
2022-11-22T20:24:10.790Z,24.70
2022-11-22T20:26:38.075Z,24.50
2022-11-22T20:29:10.586Z,22.60
2022-11-22T20:31:42.145Z,24.30
2022-11-22T20:34:10.514Z,23.87
2022-11-22T20:36:37.917Z,20.80
2022-11-22T20:39:10.595Z,22.30
2022-11-22T20:41:39.363Z,25.00
2022-11-22T20:44:07.479Z,25.43
2022-11-22T20:46:37.856Z,24.67
2022-11-22T20:49:05.173Z,23.33
2022-11-22T20:51:38.665Z,25.07
2022-11-22T20:54:07.529Z,22.37
2022-11-22T20:56:35.304Z,23.83
2022-11-22T20:59:02.343Z,23.13
2022-11-22T21:01:31.918Z,21.80
2022-11-22T21:03:59.062Z,22.50
2022-11-22T21:06:27.885Z,24.47
2022-11-22T21:08:56.058Z,23.47
2022-11-22T21:11:27.300Z,21.07
2022-11-22T21:13:55.808Z,24.03
2022-11-22T21:16:27.147Z,23.30
2022-11-22T21:19:01.518Z,23.37
2022-11-22T21:21:33.270Z,20.03
2022-11-22T21:24:02.902Z,24.63
2022-11-22T21:26:30.343Z,22.70
2022-11-22T21:28:58.086Z,23.40
2022-11-22T21:31:25.656Z,21.73
2022-11-22T21:33:53.533Z,25.00
2022-11-22T21:36:22.110Z,21.00
2022-11-22T21:38:49.670Z,22.93
2022-11-22T21:44:10.547Z,22.60
2022-11-22T21:46:38.185Z,23.50
2022-11-22T21:49:05.638Z,24.77
2022-11-22T21:51:32.957Z,25.13
2022-11-22T21:54:02.558Z,23.40
2022-11-22T21:56:30.354Z,24.33
2022-11-22T21:59:00.987Z,23.77
2022-11-22T22:01:28.973Z,23.60
2022-11-22T22:03:56.550Z,24.13
2022-11-22T22:06:25.010Z,23.67
2022-11-22T22:08:52.365Z,25.23
2022-11-22T22:11:19.477Z,24.77
2022-11-22T22:13:46.934Z,24.20
2022-11-22T22:16:23.451Z,24.20
2022-11-22T22:18:52.485Z,23.87
2022-11-22T22:21:21.388Z,22.65
2022-11-22T22:23:48.973Z,23.93
2022-11-22T22:26:17.644Z,23.60
2022-11-22T22:28:45.972Z,24.73
2022-11-22T22:31:22.606Z,24.57
2022-11-22T22:33:54.371Z,22.40
2022-11-22T22:36:23.182Z,23.90
2022-11-22T22:38:51.199Z,21.25
2022-11-22T22:41:18.705Z,24.05
2022-11-22T22:43:48.487Z,24.90
2022-11-22T22:46:25.205Z,24.13
2022-11-22T22:48:54.996Z,23.70
2022-11-22T22:51:35.307Z,24.83
2022-11-22T22:54:02.889Z,25.50
2022-11-22T22:56:34.690Z,25.43
2022-11-22T22:59:02.717Z,24.05
2022-11-22T23:01:35.477Z,24.90
2022-11-22T23:04:05.912Z,25.50
2022-11-22T23:06:40.756Z,24.97
2022-11-22T23:09:11.422Z,24.40
2022-11-22T23:11:58.847Z,26.17
2022-11-22T23:14:32.631Z,25.60
2022-11-22T23:17:06.002Z,23.60
2022-11-22T23:19:39.214Z,25.90
2022-11-22T23:22:06.733Z,23.03
2022-11-22T23:24:34.637Z,27.07
2022-11-22T23:27:02.237Z,23.73
2022-11-22T23:29:29.348Z,24.40
2022-11-22T23:31:56.592Z,24.70
2022-11-22T23:34:23.735Z,25.70
2022-11-22T23:36:51.135Z,24.47
2022-11-22T23:39:18.350Z,23.90
2022-11-22T23:41:45.923Z,25.40
2022-11-22T23:44:13.578Z,24.10
2022-11-22T23:46:40.699Z,24.77
2022-11-22T23:49:08.193Z,24.90
2022-11-22T23:51:36.742Z,25.20
2022-11-22T23:54:06.565Z,23.80
2022-11-22T23:56:35.604Z,25.27
2022-11-22T23:59:05.243Z,23.77
